sensor_id;sensor_type;location;lat;lon;timestamp;P1;durP1;ratioP1;P2;durP2;ratioP2
19329;SDS011;9799;48.214;16.388;2022-08-19T00:02:14;10.05;;;4.13;;
19329;SDS011;9799;48.214;16.388;2022-08-19T00:05:35;6.90;;;4.82;;
19329;SDS011;9799;48.214;16.388;2022-08-19T00:08:57;7.30;;;4.18;;
19329;SDS011;9799;48.214;16.388;2022-08-19T00:12:20;8.30;;;3.80;;
19329;SDS011;9799;48.214;16.388;2022-08-19T00:15:42;12.10;;;4.45;;
19329;SDS011;9799;48.214;16.388;2022-08-19T00:19:03;10.77;;;5.22;;
19329;SDS011;9799;48.214;16.388;2022-08-19T00:22:25;7.10;;;4.15;;
19329;SDS011;9799;48.214;16.388;2022-08-19T00:25:47;5.47;;;4.35;;
19329;SDS011;9799;48.214;16.388;2022-08-19T00:29:10;12.73;;;4.85;;
19329;SDS011;9799;48.214;16.388;2022-08-19T00:32:33;7.88;;;4.75;;
19329;SDS011;9799;48.214;16.388;2022-08-19T00:35:55;8.65;;;4.40;;
19329;SDS011;9799;48.214;16.388;2022-08-19T00:39:16;10.48;;;4.70;;
19329;SDS011;9799;48.214;16.388;2022-08-19T00:42:38;10.38;;;4.80;;
19329;SDS011;9799;48.214;16.388;2022-08-19T00:46:00;9.98;;;4.47;;
19329;SDS011;9799;48.214;16.388;2022-08-19T00:49:25;7.43;;;4.28;;
19329;SDS011;9799;48.214;16.388;2022-08-19T00:52:50;7.95;;;4.70;;
19329;SDS011;9799;48.214;16.388;2022-08-19T00:56:11;7.50;;;4.38;;
19329;SDS011;9799;48.214;16.388;2022-08-19T00:59:33;7.10;;;4.38;;
19329;SDS011;9799;48.214;16.388;2022-08-19T01:02:58;4.57;;;4.18;;
19329;SDS011;9799;48.214;16.388;2022-08-19T01:06:19;8.35;;;4.93;;
19329;SDS011;9799;48.214;16.388;2022-08-19T01:09:41;9.85;;;4.13;;
19329;SDS011;9799;48.214;16.388;2022-08-19T01:13:03;13.20;;;5.07;;
19329;SDS011;9799;48.214;16.388;2022-08-19T01:16:25;5.38;;;4.55;;
19329;SDS011;9799;48.214;16.388;2022-08-19T01:19:50;10.60;;;4.78;;
19329;SDS011;9799;48.214;16.388;2022-08-19T01:23:13;14.60;;;5.40;;
19329;SDS011;9799;48.214;16.388;2022-08-19T01:26:37;12.13;;;4.65;;
19329;SDS011;9799;48.214;16.388;2022-08-19T01:30:01;9.18;;;5.30;;
19329;SDS011;9799;48.214;16.388;2022-08-19T01:33:22;7.53;;;4.57;;
19329;SDS011;9799;48.214;16.388;2022-08-19T01:36:44;6.18;;;5.03;;
19329;SDS011;9799;48.214;16.388;2022-08-19T01:40:09;11.73;;;4.93;;
19329;SDS011;9799;48.214;16.388;2022-08-19T01:43:30;6.78;;;4.55;;
19329;SDS011;9799;48.214;16.388;2022-08-19T01:46:52;10.95;;;4.80;;
19329;SDS011;9799;48.214;16.388;2022-08-19T01:50:13;13.18;;;5.63;;
19329;SDS011;9799;48.214;16.388;2022-08-19T01:53:35;10.10;;;4.55;;
19329;SDS011;9799;48.214;16.388;2022-08-19T01:56:59;10.43;;;4.65;;
19329;SDS011;9799;48.214;16.388;2022-08-19T02:00:24;6.55;;;4.60;;
19329;SDS011;9799;48.214;16.388;2022-08-19T02:03:48;9.50;;;3.90;;
19329;SDS011;9799;48.214;16.388;2022-08-19T02:07:11;6.25;;;3.72;;
19329;SDS011;9799;48.214;16.388;2022-08-19T02:10:32;7.43;;;3.80;;
19329;SDS011;9799;48.214;16.388;2022-08-19T02:13:55;6.45;;;4.35;;
19329;SDS011;9799;48.214;16.388;2022-08-19T02:17:16;6.10;;;4.55;;
19329;SDS011;9799;48.214;16.388;2022-08-19T02:20:38;6.72;;;4.05;;
19329;SDS011;9799;48.214;16.388;2022-08-19T02:24:00;7.55;;;4.88;;
19329;SDS011;9799;48.214;16.388;2022-08-19T02:27:22;5.18;;;3.35;;
19329;SDS011;9799;48.214;16.388;2022-08-19T02:30:47;5.10;;;3.78;;
19329;SDS011;9799;48.214;16.388;2022-08-19T02:34:08;7.55;;;4.55;;
19329;SDS011;9799;48.214;16.388;2022-08-19T02:37:29;8.18;;;5.35;;
19329;SDS011;9799;48.214;16.388;2022-08-19T02:41:14;9.35;;;4.65;;
19329;SDS011;9799;48.214;16.388;2022-08-19T02:44:38;7.35;;;4.63;;
19329;SDS011;9799;48.214;16.388;2022-08-19T02:48:00;9.73;;;5.05;;
19329;SDS011;9799;48.214;16.388;2022-08-19T02:51:23;8.45;;;5.50;;
19329;SDS011;9799;48.214;16.388;2022-08-19T02:54:46;10.35;;;5.35;;
19329;SDS011;9799;48.214;16.388;2022-08-19T02:58:07;8.38;;;4.63;;
19329;SDS011;9799;48.214;16.388;2022-08-19T03:01:28;9.05;;;4.93;;
19329;SDS011;9799;48.214;16.388;2022-08-19T03:04:52;11.50;;;5.15;;
19329;SDS011;9799;48.214;16.388;2022-08-19T03:08:13;7.90;;;4.82;;
19329;SDS011;9799;48.214;16.388;2022-08-19T03:11:35;7.10;;;4.63;;
19329;SDS011;9799;48.214;16.388;2022-08-19T03:14:56;8.02;;;5.00;;
19329;SDS011;9799;48.214;16.388;2022-08-19T03:18:18;9.45;;;5.15;;
19329;SDS011;9799;48.214;16.388;2022-08-19T03:21:42;7.72;;;4.85;;
19329;SDS011;9799;48.214;16.388;2022-08-19T03:25:05;7.47;;;4.78;;
19329;SDS011;9799;48.214;16.388;2022-08-19T03:28:26;11.18;;;5.10;;
19329;SDS011;9799;48.214;16.388;2022-08-19T03:31:47;6.20;;;4.30;;
19329;SDS011;9799;48.214;16.388;2022-08-19T03:35:09;5.57;;;4.05;;
19329;SDS011;9799;48.214;16.388;2022-08-19T03:38:32;10.57;;;4.40;;
19329;SDS011;9799;48.214;16.388;2022-08-19T03:41:53;10.13;;;4.72;;
19329;SDS011;9799;48.214;16.388;2022-08-19T03:45:16;12.98;;;5.13;;
19329;SDS011;9799;48.214;16.388;2022-08-19T03:48:38;7.85;;;4.63;;
19329;SDS011;9799;48.214;16.388;2022-08-19T03:52:01;6.65;;;4.28;;
19329;SDS011;9799;48.214;16.388;2022-08-19T03:55:27;11.27;;;5.78;;
19329;SDS011;9799;48.214;16.388;2022-08-19T03:58:48;7.03;;;4.60;;
19329;SDS011;9799;48.214;16.388;2022-08-19T04:02:11;10.35;;;4.68;;
19329;SDS011;9799;48.214;16.388;2022-08-19T04:05:33;11.20;;;5.30;;
19329;SDS011;9799;48.214;16.388;2022-08-19T04:08:54;8.20;;;4.68;;
19329;SDS011;9799;48.214;16.388;2022-08-19T04:12:18;8.30;;;5.32;;
19329;SDS011;9799;48.214;16.388;2022-08-19T04:15:40;8.52;;;4.25;;
19329;SDS011;9799;48.214;16.388;2022-08-19T04:19:02;11.48;;;4.82;;
19329;SDS011;9799;48.214;16.388;2022-08-19T04:22:25;9.35;;;5.38;;
19329;SDS011;9799;48.214;16.388;2022-08-19T04:25:46;9.85;;;4.72;;
19329;SDS011;9799;48.214;16.388;2022-08-19T04:29:10;10.13;;;4.85;;
19329;SDS011;9799;48.214;16.388;2022-08-19T04:32:33;6.50;;;5.07;;
19329;SDS011;9799;48.214;16.388;2022-08-19T04:35:54;8.00;;;5.07;;
19329;SDS011;9799;48.214;16.388;2022-08-19T04:39:16;16.60;;;6.32;;
19329;SDS011;9799;48.214;16.388;2022-08-19T04:42:39;15.45;;;5.85;;
19329;SDS011;9799;48.214;16.388;2022-08-19T04:46:05;13.13;;;4.75;;
19329;SDS011;9799;48.214;16.388;2022-08-19T04:49:27;9.27;;;6.22;;
19329;SDS011;9799;48.214;16.388;2022-08-19T04:52:50;11.45;;;7.57;;
19329;SDS011;9799;48.214;16.388;2022-08-19T04:56:12;11.02;;;6.32;;
19329;SDS011;9799;48.214;16.388;2022-08-19T04:59:36;8.55;;;6.28;;
19329;SDS011;9799;48.214;16.388;2022-08-19T05:03:00;9.77;;;5.53;;
19329;SDS011;9799;48.214;16.388;2022-08-19T05:06:22;11.27;;;5.85;;
19329;SDS011;9799;48.214;16.388;2022-08-19T05:09:44;7.47;;;5.68;;
19329;SDS011;9799;48.214;16.388;2022-08-19T05:13:05;8.35;;;5.88;;
19329;SDS011;9799;48.214;16.388;2022-08-19T05:16:29;8.88;;;5.50;;
19329;SDS011;9799;48.214;16.388;2022-08-19T05:19:52;13.73;;;6.40;;
19329;SDS011;9799;48.214;16.388;2022-08-19T05:23:31;10.23;;;7.80;;
19329;SDS011;9799;48.214;16.388;2022-08-19T05:26:53;9.63;;;8.38;;
19329;SDS011;9799;48.214;16.388;2022-08-19T05:30:17;10.73;;;7.88;;
19329;SDS011;9799;48.214;16.388;2022-08-19T05:33:38;11.32;;;9.50;;
19329;SDS011;9799;48.214;16.388;2022-08-19T05:37:01;10.05;;;8.35;;
19329;SDS011;9799;48.214;16.388;2022-08-19T05:40:24;18.05;;;9.70;;
19329;SDS011;9799;48.214;16.388;2022-08-19T05:43:45;10.30;;;9.30;;
19329;SDS011;9799;48.214;16.388;2022-08-19T05:47:06;11.23;;;10.00;;
19329;SDS011;9799;48.214;16.388;2022-08-19T05:50:28;10.68;;;9.57;;
19329;SDS011;9799;48.214;16.388;2022-08-19T05:53:51;10.25;;;9.35;;
19329;SDS011;9799;48.214;16.388;2022-08-19T05:57:12;11.90;;;10.32;;
19329;SDS011;9799;48.214;16.388;2022-08-19T06:00:35;11.65;;;10.45;;
19329;SDS011;9799;48.214;16.388;2022-08-19T06:03:57;11.13;;;10.00;;
19329;SDS011;9799;48.214;16.388;2022-08-19T06:07:19;10.98;;;9.88;;
19329;SDS011;9799;48.214;16.388;2022-08-19T06:10:41;13.15;;;10.20;;
19329;SDS011;9799;48.214;16.388;2022-08-19T06:14:04;10.65;;;9.65;;
19329;SDS011;9799;48.214;16.388;2022-08-19T06:17:28;10.07;;;9.02;;
19329;SDS011;9799;48.214;16.388;2022-08-19T06:20:49;11.20;;;10.10;;
19329;SDS011;9799;48.214;16.388;2022-08-19T06:24:11;10.65;;;9.50;;
19329;SDS011;9799;48.214;16.388;2022-08-19T06:27:35;11.00;;;9.48;;
19329;SDS011;9799;48.214;16.388;2022-08-19T06:30:56;9.88;;;8.85;;
19329;SDS011;9799;48.214;16.388;2022-08-19T06:34:18;12.43;;;9.27;;
19329;SDS011;9799;48.214;16.388;2022-08-19T06:37:40;10.50;;;9.50;;
19329;SDS011;9799;48.214;16.388;2022-08-19T06:41:02;12.25;;;9.68;;
19329;SDS011;9799;48.214;16.388;2022-08-19T06:44:28;16.02;;;14.35;;
19329;SDS011;9799;48.214;16.388;2022-08-19T06:47:55;15.10;;;9.57;;
19329;SDS011;9799;48.214;16.388;2022-08-19T06:51:17;12.18;;;10.02;;
19329;SDS011;9799;48.214;16.388;2022-08-19T06:54:38;12.27;;;9.43;;
19329;SDS011;9799;48.214;16.388;2022-08-19T06:58:01;10.45;;;9.45;;
19329;SDS011;9799;48.214;16.388;2022-08-19T07:01:25;10.55;;;9.45;;
19329;SDS011;9799;48.214;16.388;2022-08-19T07:04:46;8.80;;;7.97;;
19329;SDS011;9799;48.214;16.388;2022-08-19T07:08:07;11.35;;;8.07;;
19329;SDS011;9799;48.214;16.388;2022-08-19T07:11:29;10.52;;;9.02;;
19329;SDS011;9799;48.214;16.388;2022-08-19T07:14:50;11.20;;;8.90;;
19329;SDS011;9799;48.214;16.388;2022-08-19T07:18:13;10.35;;;9.25;;
19329;SDS011;9799;48.214;16.388;2022-08-19T07:21:35;9.63;;;8.45;;
19329;SDS011;9799;48.214;16.388;2022-08-19T07:24:56;11.75;;;8.90;;
19329;SDS011;9799;48.214;16.388;2022-08-19T07:28:17;13.40;;;10.88;;
19329;SDS011;9799;48.214;16.388;2022-08-19T07:31:39;12.27;;;10.60;;
19329;SDS011;9799;48.214;16.388;2022-08-19T07:35:02;9.70;;;8.45;;
19329;SDS011;9799;48.214;16.388;2022-08-19T07:38:24;9.95;;;8.95;;
19329;SDS011;9799;48.214;16.388;2022-08-19T07:41:46;10.93;;;8.43;;
19329;SDS011;9799;48.214;16.388;2022-08-19T07:45:08;11.85;;;7.22;;
19329;SDS011;9799;48.214;16.388;2022-08-19T07:48:29;16.45;;;8.30;;
19329;SDS011;9799;48.214;16.388;2022-08-19T07:51:54;10.68;;;6.85;;
19329;SDS011;9799;48.214;16.388;2022-08-19T07:55:19;10.43;;;7.88;;
19329;SDS011;9799;48.214;16.388;2022-08-19T07:58:45;11.27;;;7.88;;
19329;SDS011;9799;48.214;16.388;2022-08-19T08:02:08;9.60;;;7.60;;
19329;SDS011;9799;48.214;16.388;2022-08-19T08:05:29;11.18;;;8.52;;
19329;SDS011;9799;48.214;16.388;2022-08-19T08:09:10;10.55;;;7.47;;
19329;SDS011;9799;48.214;16.388;2022-08-19T08:12:40;7.90;;;7.20;;
19329;SDS011;9799;48.214;16.388;2022-08-19T08:16:01;10.30;;;7.78;;
19329;SDS011;9799;48.214;16.388;2022-08-19T08:19:23;9.88;;;7.38;;
19329;SDS011;9799;48.214;16.388;2022-08-19T08:22:46;11.02;;;7.53;;
19329;SDS011;9799;48.214;16.388;2022-08-19T08:26:27;12.02;;;7.32;;
19329;SDS011;9799;48.214;16.388;2022-08-19T08:29:48;12.32;;;7.57;;
19329;SDS011;9799;48.214;16.388;2022-08-19T08:33:09;13.85;;;12.48;;
19329;SDS011;9799;48.214;16.388;2022-08-19T08:36:31;10.38;;;7.15;;
19329;SDS011;9799;48.214;16.388;2022-08-19T08:39:52;14.00;;;7.93;;
19329;SDS011;9799;48.214;16.388;2022-08-19T08:43:22;8.75;;;7.20;;
19329;SDS011;9799;48.214;16.388;2022-08-19T08:46:48;12.73;;;7.45;;
19329;SDS011;9799;48.214;16.388;2022-08-19T08:50:13;9.95;;;7.15;;
19329;SDS011;9799;48.214;16.388;2022-08-19T08:53:38;9.32;;;6.72;;
19329;SDS011;9799;48.214;16.388;2022-08-19T08:57:04;14.90;;;12.60;;
19329;SDS011;9799;48.214;16.388;2022-08-19T09:00:34;10.55;;;8.50;;
19329;SDS011;9799;48.214;16.388;2022-08-19T09:03:59;12.15;;;9.05;;
19329;SDS011;9799;48.214;16.388;2022-08-19T09:07:26;11.25;;;7.75;;
19329;SDS011;9799;48.214;16.388;2022-08-19T09:10:59;9.57;;;7.25;;
19329;SDS011;9799;48.214;16.388;2022-08-19T09:14:37;7.97;;;7.18;;
19329;SDS011;9799;48.214;16.388;2022-08-19T09:18:06;9.32;;;7.65;;
19329;SDS011;9799;48.214;16.388;2022-08-19T09:21:29;9.82;;;7.28;;
19329;SDS011;9799;48.214;16.388;2022-08-19T09:24:50;8.52;;;7.45;;
19329;SDS011;9799;48.214;16.388;2022-08-19T09:28:12;11.55;;;6.95;;
19329;SDS011;9799;48.214;16.388;2022-08-19T09:31:33;8.18;;;7.18;;
19329;SDS011;9799;48.214;16.388;2022-08-19T09:34:56;9.15;;;7.10;;
19329;SDS011;9799;48.214;16.388;2022-08-19T09:38:17;9.85;;;7.38;;
19329;SDS011;9799;48.214;16.388;2022-08-19T09:41:38;9.45;;;7.03;;
19329;SDS011;9799;48.214;16.388;2022-08-19T09:44:59;13.38;;;7.25;;
19329;SDS011;9799;48.214;16.388;2022-08-19T09:48:21;20.95;;;8.63;;
19329;SDS011;9799;48.214;16.388;2022-08-19T09:51:43;36.10;;;9.05;;
19329;SDS011;9799;48.214;16.388;2022-08-19T09:55:07;14.85;;;6.88;;
19329;SDS011;9799;48.214;16.388;2022-08-19T09:58:30;7.38;;;6.43;;
19329;SDS011;9799;48.214;16.388;2022-08-19T10:01:51;13.55;;;7.32;;
19329;SDS011;9799;48.214;16.388;2022-08-19T10:05:15;14.48;;;8.50;;
19329;SDS011;9799;48.214;16.388;2022-08-19T10:08:55;11.90;;;6.78;;
19329;SDS011;9799;48.214;16.388;2022-08-19T10:12:16;8.43;;;6.72;;
19329;SDS011;9799;48.214;16.388;2022-08-19T10:15:37;10.85;;;6.63;;
19329;SDS011;9799;48.214;16.388;2022-08-19T10:19:00;13.98;;;7.03;;
19329;SDS011;9799;48.214;16.388;2022-08-19T10:22:21;12.73;;;7.38;;
19329;SDS011;9799;48.214;16.388;2022-08-19T10:25:44;7.43;;;6.57;;
19329;SDS011;9799;48.214;16.388;2022-08-19T10:29:06;10.10;;;5.80;;
19329;SDS011;9799;48.214;16.388;2022-08-19T10:32:29;11.30;;;7.78;;
19329;SDS011;9799;48.214;16.388;2022-08-19T10:35:58;12.95;;;10.00;;
19329;SDS011;9799;48.214;16.388;2022-08-19T10:39:20;11.23;;;7.80;;
19329;SDS011;9799;48.214;16.388;2022-08-19T10:42:42;10.15;;;6.72;;
19329;SDS011;9799;48.214;16.388;2022-08-19T10:46:04;12.85;;;8.25;;
19329;SDS011;9799;48.214;16.388;2022-08-19T10:49:25;17.15;;;9.43;;
19329;SDS011;9799;48.214;16.388;2022-08-19T10:52:47;11.48;;;7.18;;
19329;SDS011;9799;48.214;16.388;2022-08-19T10:56:08;12.40;;;7.72;;
19329;SDS011;9799;48.214;16.388;2022-08-19T10:59:45;8.63;;;7.00;;
19329;SDS011;9799;48.214;16.388;2022-08-19T11:03:06;10.82;;;7.63;;
19329;SDS011;9799;48.214;16.388;2022-08-19T11:06:28;13.27;;;8.30;;
19329;SDS011;9799;48.214;16.388;2022-08-19T11:09:49;18.98;;;12.82;;
19329;SDS011;9799;48.214;16.388;2022-08-19T11:13:10;14.45;;;7.85;;
19329;SDS011;9799;48.214;16.388;2022-08-19T11:16:33;15.73;;;8.82;;
19329;SDS011;9799;48.214;16.388;2022-08-19T11:19:54;11.65;;;9.52;;
19329;SDS011;9799;48.214;16.388;2022-08-19T11:23:15;13.70;;;9.40;;
19329;SDS011;9799;48.214;16.388;2022-08-19T11:26:37;17.67;;;8.70;;
19329;SDS011;9799;48.214;16.388;2022-08-19T11:29:59;11.55;;;8.35;;
19329;SDS011;9799;48.214;16.388;2022-08-19T11:33:24;9.52;;;6.95;;
19329;SDS011;9799;48.214;16.388;2022-08-19T11:36:47;17.60;;;7.70;;
19329;SDS011;9799;48.214;16.388;2022-08-19T11:40:10;10.70;;;6.15;;
19329;SDS011;9799;48.214;16.388;2022-08-19T11:43:32;13.60;;;6.20;;
19329;SDS011;9799;48.214;16.388;2022-08-19T11:46:53;17.35;;;5.68;;
19329;SDS011;9799;48.214;16.388;2022-08-19T11:50:16;16.60;;;5.78;;
19329;SDS011;9799;48.214;16.388;2022-08-19T11:53:38;19.88;;;6.00;;
19329;SDS011;9799;48.214;16.388;2022-08-19T11:56:59;14.90;;;5.65;;
19329;SDS011;9799;48.214;16.388;2022-08-19T12:00:22;19.67;;;5.40;;
19329;SDS011;9799;48.214;16.388;2022-08-19T12:03:44;10.05;;;5.55;;
19329;SDS011;9799;48.214;16.388;2022-08-19T12:07:07;16.70;;;5.53;;
19329;SDS011;9799;48.214;16.388;2022-08-19T12:10:28;11.10;;;5.85;;
19329;SDS011;9799;48.214;16.388;2022-08-19T12:13:49;13.68;;;5.97;;
19329;SDS011;9799;48.214;16.388;2022-08-19T12:17:11;16.13;;;5.55;;
19329;SDS011;9799;48.214;16.388;2022-08-19T12:20:33;16.60;;;6.57;;
19329;SDS011;9799;48.214;16.388;2022-08-19T12:23:57;15.52;;;6.40;;
19329;SDS011;9799;48.214;16.388;2022-08-19T12:27:20;13.23;;;7.07;;
19329;SDS011;9799;48.214;16.388;2022-08-19T12:30:41;15.50;;;6.90;;
19329;SDS011;9799;48.214;16.388;2022-08-19T12:34:02;9.70;;;6.63;;
19329;SDS011;9799;48.214;16.388;2022-08-19T12:37:24;10.73;;;5.75;;
19329;SDS011;9799;48.214;16.388;2022-08-19T12:40:46;13.32;;;6.70;;
19329;SDS011;9799;48.214;16.388;2022-08-19T12:44:08;13.32;;;7.55;;
19329;SDS011;9799;48.214;16.388;2022-08-19T12:47:31;12.90;;;6.63;;
19329;SDS011;9799;48.214;16.388;2022-08-19T12:50:52;7.70;;;6.38;;
19329;SDS011;9799;48.214;16.388;2022-08-19T12:54:14;8.13;;;7.30;;
19329;SDS011;9799;48.214;16.388;2022-08-19T12:57:36;12.75;;;7.03;;
19329;SDS011;9799;48.214;16.388;2022-08-19T13:00:57;17.30;;;7.78;;
19329;SDS011;9799;48.214;16.388;2022-08-19T13:04:18;13.80;;;7.38;;
19329;SDS011;9799;48.214;16.388;2022-08-19T13:07:40;20.45;;;7.22;;
19329;SDS011;9799;48.214;16.388;2022-08-19T13:11:06;13.02;;;6.70;;
19329;SDS011;9799;48.214;16.388;2022-08-19T13:14:31;11.80;;;6.18;;
19329;SDS011;9799;48.214;16.388;2022-08-19T13:17:53;15.23;;;10.48;;
19329;SDS011;9799;48.214;16.388;2022-08-19T13:21:15;15.25;;;5.45;;
19329;SDS011;9799;48.214;16.388;2022-08-19T13:24:38;21.60;;;6.43;;
19329;SDS011;9799;48.214;16.388;2022-08-19T13:28:01;12.23;;;6.82;;
19329;SDS011;9799;48.214;16.388;2022-08-19T13:31:24;10.60;;;6.93;;
19329;SDS011;9799;48.214;16.388;2022-08-19T13:35:03;10.15;;;6.18;;
19329;SDS011;9799;48.214;16.388;2022-08-19T13:38:25;12.90;;;6.35;;
19329;SDS011;9799;48.214;16.388;2022-08-19T13:41:47;11.52;;;6.70;;
19329;SDS011;9799;48.214;16.388;2022-08-19T13:45:09;14.27;;;5.95;;
19329;SDS011;9799;48.214;16.388;2022-08-19T13:48:32;16.23;;;6.40;;
19329;SDS011;9799;48.214;16.388;2022-08-19T13:51:53;20.15;;;6.63;;
19329;SDS011;9799;48.214;16.388;2022-08-19T13:55:14;12.80;;;5.97;;
19329;SDS011;9799;48.214;16.388;2022-08-19T13:58:36;10.95;;;5.97;;
19329;SDS011;9799;48.214;16.388;2022-08-19T14:01:58;14.27;;;5.88;;
19329;SDS011;9799;48.214;16.388;2022-08-19T14:05:21;17.73;;;5.75;;
19329;SDS011;9799;48.214;16.388;2022-08-19T14:08:44;13.05;;;5.95;;
19329;SDS011;9799;48.214;16.388;2022-08-19T14:12:06;9.20;;;5.57;;
19329;SDS011;9799;48.214;16.388;2022-08-19T14:15:27;14.90;;;6.40;;
19329;SDS011;9799;48.214;16.388;2022-08-19T14:18:49;10.57;;;5.05;;
19329;SDS011;9799;48.214;16.388;2022-08-19T14:22:12;9.00;;;5.88;;
19329;SDS011;9799;48.214;16.388;2022-08-19T14:25:34;11.80;;;5.90;;
19329;SDS011;9799;48.214;16.388;2022-08-19T14:28:55;12.88;;;5.82;;
19329;SDS011;9799;48.214;16.388;2022-08-19T14:32:17;14.07;;;6.15;;
19329;SDS011;9799;48.214;16.388;2022-08-19T14:35:38;11.63;;;5.57;;
19329;SDS011;9799;48.214;16.388;2022-08-19T14:39:05;11.20;;;4.75;;
19329;SDS011;9799;48.214;16.388;2022-08-19T14:42:26;8.93;;;6.00;;
19329;SDS011;9799;48.214;16.388;2022-08-19T14:45:47;8.38;;;5.95;;
19329;SDS011;9799;48.214;16.388;2022-08-19T14:49:08;8.18;;;5.32;;
19329;SDS011;9799;48.214;16.388;2022-08-19T14:52:30;15.82;;;6.32;;
19329;SDS011;9799;48.214;16.388;2022-08-19T14:55:52;17.52;;;5.97;;
19329;SDS011;9799;48.214;16.388;2022-08-19T14:59:13;9.15;;;5.05;;
19329;SDS011;9799;48.214;16.388;2022-08-19T15:02:35;8.52;;;5.65;;
19329;SDS011;9799;48.214;16.388;2022-08-19T15:05:56;10.05;;;4.75;;
19329;SDS011;9799;48.214;16.388;2022-08-19T15:09:18;12.05;;;5.00;;
19329;SDS011;9799;48.214;16.388;2022-08-19T15:12:40;15.38;;;4.05;;
19329;SDS011;9799;48.214;16.388;2022-08-19T15:16:02;7.30;;;3.55;;
19329;SDS011;9799;48.214;16.388;2022-08-19T15:19:24;9.02;;;3.67;;
19329;SDS011;9799;48.214;16.388;2022-08-19T15:22:45;4.95;;;3.10;;
19329;SDS011;9799;48.214;16.388;2022-08-19T15:26:07;13.88;;;3.42;;
19329;SDS011;9799;48.214;16.388;2022-08-19T15:29:30;13.48;;;3.35;;
19329;SDS011;9799;48.214;16.388;2022-08-19T15:32:52;9.93;;;3.83;;
19329;SDS011;9799;48.214;16.388;2022-08-19T15:36:14;9.27;;;4.07;;
19329;SDS011;9799;48.214;16.388;2022-08-19T15:39:35;10.93;;;3.15;;
19329;SDS011;9799;48.214;16.388;2022-08-19T15:42:56;7.25;;;3.20;;
19329;SDS011;9799;48.214;16.388;2022-08-19T15:46:20;5.70;;;3.20;;
19329;SDS011;9799;48.214;16.388;2022-08-19T15:49:43;12.55;;;3.42;;
19329;SDS011;9799;48.214;16.388;2022-08-19T15:53:06;5.80;;;3.70;;
19329;SDS011;9799;48.214;16.388;2022-08-19T15:56:29;7.65;;;3.03;;
19329;SDS011;9799;48.214;16.388;2022-08-19T16:00:17;11.43;;;3.55;;
19329;SDS011;9799;48.214;16.388;2022-08-19T16:03:56;7.05;;;4.00;;
19329;SDS011;9799;48.214;16.388;2022-08-19T16:07:36;15.52;;;5.10;;
19329;SDS011;9799;48.214;16.388;2022-08-19T16:10:57;13.80;;;5.43;;
19329;SDS011;9799;48.214;16.388;2022-08-19T16:14:18;16.92;;;3.65;;
19329;SDS011;9799;48.214;16.388;2022-08-19T16:17:41;8.50;;;5.65;;
19329;SDS011;9799;48.214;16.388;2022-08-19T16:21:03;10.32;;;3.95;;
19329;SDS011;9799;48.214;16.388;2022-08-19T16:24:26;6.18;;;3.90;;
19329;SDS011;9799;48.214;16.388;2022-08-19T16:27:47;9.05;;;4.00;;
19329;SDS011;9799;48.214;16.388;2022-08-19T16:31:09;12.77;;;4.40;;
19329;SDS011;9799;48.214;16.388;2022-08-19T16:34:32;11.23;;;4.57;;
19329;SDS011;9799;48.214;16.388;2022-08-19T16:37:53;10.95;;;4.28;;
19329;SDS011;9799;48.214;16.388;2022-08-19T16:41:14;9.35;;;3.78;;
19329;SDS011;9799;48.214;16.388;2022-08-19T16:44:39;9.45;;;4.53;;
19329;SDS011;9799;48.214;16.388;2022-08-19T16:48:01;12.43;;;4.72;;
19329;SDS011;9799;48.214;16.388;2022-08-19T16:51:25;11.57;;;4.85;;
19329;SDS011;9799;48.214;16.388;2022-08-19T16:54:46;11.00;;;3.90;;
19329;SDS011;9799;48.214;16.388;2022-08-19T16:58:08;11.82;;;3.92;;
19329;SDS011;9799;48.214;16.388;2022-08-19T17:01:29;5.90;;;3.72;;
19329;SDS011;9799;48.214;16.388;2022-08-19T17:04:50;8.23;;;3.08;;
19329;SDS011;9799;48.214;16.388;2022-08-19T17:08:13;12.35;;;3.85;;
19329;SDS011;9799;48.214;16.388;2022-08-19T17:11:35;11.40;;;6.53;;
19329;SDS011;9799;48.214;16.388;2022-08-19T17:14:56;14.07;;;4.75;;
19329;SDS011;9799;48.214;16.388;2022-08-19T17:18:17;10.73;;;4.88;;
19329;SDS011;9799;48.214;16.388;2022-08-19T17:21:39;9.70;;;4.50;;
19329;SDS011;9799;48.214;16.388;2022-08-19T17:25:02;11.60;;;4.18;;
19329;SDS011;9799;48.214;16.388;2022-08-19T17:28:24;14.80;;;7.18;;
19329;SDS011;9799;48.214;16.388;2022-08-19T17:31:47;20.58;;;4.78;;
19329;SDS011;9799;48.214;16.388;2022-08-19T17:35:08;14.55;;;4.07;;
19329;SDS011;9799;48.214;16.388;2022-08-19T17:38:30;6.03;;;3.58;;
19329;SDS011;9799;48.214;16.388;2022-08-19T17:41:53;10.05;;;4.05;;
19329;SDS011;9799;48.214;16.388;2022-08-19T17:45:15;13.77;;;4.20;;
19329;SDS011;9799;48.214;16.388;2022-08-19T17:48:38;15.05;;;4.63;;
19329;SDS011;9799;48.214;16.388;2022-08-19T17:52:01;15.90;;;4.95;;
19329;SDS011;9799;48.214;16.388;2022-08-19T17:55:22;15.90;;;4.97;;
19329;SDS011;9799;48.214;16.388;2022-08-19T17:58:45;17.48;;;5.05;;
19329;SDS011;9799;48.214;16.388;2022-08-19T18:02:07;12.55;;;5.25;;
19329;SDS011;9799;48.214;16.388;2022-08-19T18:05:31;16.73;;;5.25;;
19329;SDS011;9799;48.214;16.388;2022-08-19T18:08:55;15.00;;;7.68;;
19329;SDS011;9799;48.214;16.388;2022-08-19T18:12:20;13.85;;;5.60;;
19329;SDS011;9799;48.214;16.388;2022-08-19T18:15:44;8.18;;;4.10;;
19329;SDS011;9799;48.214;16.388;2022-08-19T18:19:05;12.02;;;4.38;;
19329;SDS011;9799;48.214;16.388;2022-08-19T18:22:28;11.23;;;3.97;;
19329;SDS011;9799;48.214;16.388;2022-08-19T18:25:54;16.23;;;5.00;;
19329;SDS011;9799;48.214;16.388;2022-08-19T18:29:15;11.55;;;3.92;;
19329;SDS011;9799;48.214;16.388;2022-08-19T18:32:38;13.68;;;5.30;;
19329;SDS011;9799;48.214;16.388;2022-08-19T18:36:00;15.77;;;6.15;;
19329;SDS011;9799;48.214;16.388;2022-08-19T18:39:22;11.73;;;6.53;;
19329;SDS011;9799;48.214;16.388;2022-08-19T18:43:01;16.23;;;5.88;;
19329;SDS011;9799;48.214;16.388;2022-08-19T18:46:36;13.38;;;4.82;;
19329;SDS011;9799;48.214;16.388;2022-08-19T18:50:16;9.70;;;4.95;;
19329;SDS011;9799;48.214;16.388;2022-08-19T18:53:39;17.73;;;5.70;;
19329;SDS011;9799;48.214;16.388;2022-08-19T18:57:01;11.90;;;5.72;;
19329;SDS011;9799;48.214;16.388;2022-08-19T19:00:24;10.48;;;5.18;;
19329;SDS011;9799;48.214;16.388;2022-08-19T19:03:46;14.23;;;4.28;;
19329;SDS011;9799;48.214;16.388;2022-08-19T19:07:10;9.57;;;4.95;;
19329;SDS011;9799;48.214;16.388;2022-08-19T19:10:32;14.32;;;5.22;;
19329;SDS011;9799;48.214;16.388;2022-08-19T19:13:54;11.52;;;4.80;;
19329;SDS011;9799;48.214;16.388;2022-08-19T19:17:16;10.60;;;5.32;;
19329;SDS011;9799;48.214;16.388;2022-08-19T19:20:44;14.70;;;5.30;;
19329;SDS011;9799;48.214;16.388;2022-08-19T19:24:06;11.07;;;5.30;;
19329;SDS011;9799;48.214;16.388;2022-08-19T19:27:31;11.60;;;4.72;;
19329;SDS011;9799;48.214;16.388;2022-08-19T19:30:53;10.15;;;4.13;;
19329;SDS011;9799;48.214;16.388;2022-08-19T19:34:17;17.10;;;4.68;;
19329;SDS011;9799;48.214;16.388;2022-08-19T19:37:39;16.75;;;4.50;;
19329;SDS011;9799;48.214;16.388;2022-08-19T19:41:03;12.25;;;5.53;;
19329;SDS011;9799;48.214;16.388;2022-08-19T19:44:24;12.10;;;4.85;;
19329;SDS011;9799;48.214;16.388;2022-08-19T19:47:45;9.52;;;4.38;;
19329;SDS011;9799;48.214;16.388;2022-08-19T19:51:08;10.57;;;4.45;;
19329;SDS011;9799;48.214;16.388;2022-08-19T19:54:29;12.50;;;4.80;;
19329;SDS011;9799;48.214;16.388;2022-08-19T19:57:52;15.77;;;4.57;;
19329;SDS011;9799;48.214;16.388;2022-08-19T20:01:13;9.15;;;4.38;;
19329;SDS011;9799;48.214;16.388;2022-08-19T20:04:34;16.27;;;4.78;;
19329;SDS011;9799;48.214;16.388;2022-08-19T20:07:56;10.45;;;4.80;;
19329;SDS011;9799;48.214;16.388;2022-08-19T20:11:35;8.48;;;5.10;;